createdAt,value
2022-12-02T00:00:24.941Z,69.00
2022-12-02T00:02:51.807Z,69.00
2022-12-02T00:05:29.511Z,68.90
2022-12-02T00:07:58.655Z,70.60
2022-12-02T00:10:27.051Z,70.10
2022-12-02T00:12:53.978Z,70.60
2022-12-02T00:15:26.616Z,70.00
2022-12-02T00:17:53.164Z,69.40
2022-12-02T00:20:19.689Z,68.00
2022-12-02T00:22:46.214Z,67.20
2022-12-02T00:25:12.831Z,67.90
2022-12-02T00:27:39.356Z,68.00
2022-12-02T00:30:06.333Z,68.50
2022-12-02T00:32:32.892Z,66.50
2022-12-02T00:34:59.419Z,67.50
2022-12-02T00:37:25.922Z,67.20
2022-12-02T00:39:52.481Z,67.40
2022-12-02T00:42:18.990Z,67.70
2022-12-02T00:45:04.014Z,68.40
2022-12-02T00:47:30.557Z,68.40
2022-12-02T00:49:57.095Z,68.30
2022-12-02T00:52:23.670Z,70.50
2022-12-02T00:54:50.337Z,69.60
2022-12-02T00:57:17.026Z,70.10
2022-12-02T00:59:43.842Z,71.60
2022-12-02T01:02:10.425Z,72.50
2022-12-02T01:04:37.057Z,73.40
2022-12-02T01:07:03.607Z,71.30
2022-12-02T01:09:30.174Z,70.50
2022-12-02T01:11:56.739Z,71.80
2022-12-02T01:14:23.247Z,71.50
2022-12-02T01:16:49.945Z,71.10
2022-12-02T01:19:16.560Z,71.90
2022-12-02T01:21:43.171Z,72.10
2022-12-02T01:24:09.753Z,72.80
2022-12-02T01:26:36.570Z,73.00
2022-12-02T01:29:03.774Z,70.90
2022-12-02T01:31:30.522Z,69.60
2022-12-02T01:33:57.073Z,70.30
2022-12-02T01:36:23.615Z,67.80
2022-12-02T01:38:50.179Z,68.00
2022-12-02T01:41:16.754Z,69.20
2022-12-02T01:43:43.310Z,69.20
2022-12-02T01:46:09.927Z,67.90
2022-12-02T01:48:37.099Z,66.10
2022-12-02T01:51:06.639Z,66.00
2022-12-02T01:53:33.983Z,66.00
2022-12-02T01:56:00.907Z,66.00
2022-12-02T01:58:28.789Z,65.90
2022-12-02T02:00:55.916Z,67.10
2022-12-02T02:03:23.005Z,68.50
2022-12-02T02:05:50.632Z,69.10
2022-12-02T02:08:17.827Z,68.50
2022-12-02T02:10:45.118Z,69.30
2022-12-02T02:13:12.901Z,69.00
2022-12-02T02:15:40.802Z,69.50
2022-12-02T02:18:07.471Z,72.30
2022-12-02T02:20:34.578Z,74.20
2022-12-02T02:23:04.214Z,74.20
2022-12-02T02:25:31.265Z,74.10
2022-12-02T02:27:59.155Z,74.20
2022-12-02T02:30:28.063Z,72.40
2022-12-02T02:32:55.073Z,72.30
2022-12-02T02:35:21.785Z,74.30
2022-12-02T02:37:48.962Z,74.00
2022-12-02T02:40:16.255Z,74.10
2022-12-02T02:42:47.447Z,74.00
2022-12-02T02:45:14.041Z,76.30
2022-12-02T02:47:40.737Z,76.40
2022-12-02T02:50:07.941Z,78.10
2022-12-02T02:52:34.842Z,77.90
2022-12-02T02:55:01.436Z,77.60
2022-12-02T02:57:28.003Z,78.20
2022-12-02T02:59:55.491Z,79.00
2022-12-02T03:02:23.127Z,78.80
2022-12-02T03:04:50.229Z,76.70
2022-12-02T03:07:17.414Z,76.30
2022-12-02T03:09:44.087Z,76.90
2022-12-02T03:12:11.003Z,74.10
2022-12-02T03:14:37.582Z,75.40
2022-12-02T03:17:04.349Z,74.90
2022-12-02T03:19:32.471Z,74.80
2022-12-02T03:21:59.677Z,74.10
2022-12-02T03:24:26.331Z,74.60
2022-12-02T03:26:53.069Z,74.50
2022-12-02T03:29:20.366Z,74.00
2022-12-02T03:31:47.029Z,74.00
2022-12-02T03:34:14.021Z,74.80
2022-12-02T03:36:40.790Z,74.00
2022-12-02T03:39:08.190Z,73.00
2022-12-02T03:41:34.757Z,71.80
2022-12-02T03:44:01.277Z,71.90
2022-12-02T03:46:29.288Z,72.00
2022-12-02T03:48:56.304Z,74.10
2022-12-02T03:51:22.973Z,73.90
2022-12-02T03:53:49.620Z,74.60
2022-12-02T03:56:16.269Z,75.00
2022-12-02T03:58:47.759Z,74.00
2022-12-02T04:01:14.547Z,74.00
2022-12-02T04:03:41.316Z,74.00
2022-12-02T04:06:07.876Z,73.90
2022-12-02T04:08:34.512Z,73.00
2022-12-02T04:11:01.087Z,73.90
2022-12-02T04:13:27.637Z,74.00
2022-12-02T04:15:54.515Z,73.00
2022-12-02T04:18:21.085Z,74.00
2022-12-02T04:20:47.748Z,72.60
2022-12-02T04:23:14.681Z,72.90
2022-12-02T04:25:41.294Z,72.90
2022-12-02T04:28:07.802Z,71.80
2022-12-02T04:30:34.410Z,71.20
2022-12-02T04:33:00.986Z,71.70
2022-12-02T04:35:27.559Z,69.60
2022-12-02T04:37:55.207Z,69.50
2022-12-02T04:40:22.049Z,68.70
2022-12-02T04:42:48.643Z,69.80
2022-12-02T04:45:15.307Z,66.70
2022-12-02T04:47:41.931Z,66.30
2022-12-02T04:50:08.665Z,67.40
2022-12-02T04:52:35.293Z,69.20
2022-12-02T04:55:01.874Z,68.90
2022-12-02T04:57:31.599Z,68.80
2022-12-02T04:59:58.428Z,68.20
2022-12-02T05:02:25.766Z,68.20
2022-12-02T05:04:52.803Z,65.60
2022-12-02T05:07:23.176Z,65.60
2022-12-02T05:09:50.004Z,65.50
2022-12-02T05:12:16.563Z,65.50
2022-12-02T05:14:43.174Z,65.50
2022-12-02T05:17:09.851Z,64.80
2022-12-02T05:19:36.392Z,65.60
2022-12-02T05:22:02.967Z,65.50
2022-12-02T05:24:29.529Z,65.50
2022-12-02T05:26:56.147Z,65.60
2022-12-02T05:29:22.800Z,65.50
2022-12-02T05:31:49.420Z,65.50
2022-12-02T05:34:15.994Z,65.50
2022-12-02T05:36:42.544Z,65.60
2022-12-02T05:39:09.118Z,65.40
2022-12-02T05:41:35.685Z,62.00
2022-12-02T05:44:22.614Z,61.10
2022-12-02T05:46:49.787Z,63.10
2022-12-02T05:49:21.027Z,63.70
2022-12-02T05:52:00.531Z,65.50
2022-12-02T05:54:27.884Z,64.40
2022-12-02T05:56:56.163Z,64.80
2022-12-02T05:59:22.918Z,65.50
2022-12-02T06:01:51.267Z,64.50
2022-12-02T06:04:25.833Z,63.50
2022-12-02T06:06:53.455Z,64.10
2022-12-02T06:09:23.028Z,61.20
2022-12-02T06:11:49.730Z,61.20
2022-12-02T06:14:18.299Z,59.40
2022-12-02T06:16:52.167Z,59.10
2022-12-02T06:19:26.639Z,59.30
2022-12-02T06:21:53.664Z,60.30
2022-12-02T06:24:23.850Z,59.80
2022-12-02T06:26:51.126Z,59.90
2022-12-02T06:29:18.108Z,59.90
2022-12-02T06:31:44.953Z,60.30
2022-12-02T06:34:26.706Z,61.10
2022-12-02T06:36:53.386Z,60.00
2022-12-02T06:39:24.136Z,57.80
2022-12-02T06:41:51.750Z,56.20
2022-12-02T06:44:41.245Z,56.20
2022-12-02T06:47:27.726Z,57.00
2022-12-02T06:49:54.235Z,58.50
2022-12-02T06:52:23.060Z,57.70
2022-12-02T06:54:52.658Z,57.10
2022-12-02T06:57:20.118Z,56.20
2022-12-02T06:59:47.774Z,56.20
2022-12-02T07:02:26.215Z,58.80
2022-12-02T07:04:53.091Z,56.20
2022-12-02T07:07:19.749Z,56.20
2022-12-02T07:09:54.123Z,56.70
2022-12-02T07:12:42.356Z,57.70
2022-12-02T07:15:27.655Z,59.90
2022-12-02T07:17:57.268Z,59.70
2022-12-02T07:20:43.230Z,59.60
2022-12-02T07:23:15.660Z,58.70
2022-12-02T07:25:42.896Z,58.70
2022-12-02T07:28:26.904Z,59.60
2022-12-02T07:31:03.685Z,57.90
2022-12-02T07:33:30.338Z,57.90
2022-12-02T07:35:56.938Z,57.90
2022-12-02T07:38:42.889Z,56.20
2022-12-02T07:41:09.915Z,56.20
2022-12-02T07:43:36.563Z,56.20
2022-12-02T07:46:03.213Z,56.20
2022-12-02T07:48:29.826Z,56.20
2022-12-02T07:50:56.378Z,57.30
2022-12-02T07:53:23.006Z,58.10
2022-12-02T07:55:49.999Z,57.90
2022-12-02T07:58:16.559Z,56.10
2022-12-02T08:00:43.075Z,56.20
2022-12-02T08:03:09.676Z,57.00
2022-12-02T08:05:36.233Z,58.10
2022-12-02T08:08:02.807Z,91.00
2022-12-02T08:10:29.354Z,84.20
2022-12-02T08:12:55.956Z,28.50
2022-12-02T08:15:22.530Z,15.50
2022-12-02T08:17:49.058Z,18.50
2022-12-02T08:20:15.608Z,22.00
2022-12-02T08:22:42.433Z,26.90
2022-12-02T08:25:09.262Z,32.10
2022-12-02T08:27:42.387Z,36.00
2022-12-02T08:30:12.466Z,43.30
2022-12-02T08:32:38.979Z,46.40
2022-12-02T08:35:05.762Z,51.30
2022-12-02T08:37:32.477Z,55.60
2022-12-02T08:39:58.997Z,56.50
2022-12-02T08:42:25.516Z,58.80
2022-12-02T08:44:52.303Z,60.20
2022-12-02T08:47:19.350Z,60.30
2022-12-02T08:49:45.864Z,61.30
2022-12-02T08:52:12.384Z,63.00
2022-12-02T08:54:40.956Z,58.10
2022-12-02T08:57:07.513Z,56.40
2022-12-02T08:59:34.119Z,56.40
2022-12-02T09:02:00.956Z,52.20
2022-12-02T09:04:27.565Z,46.30
2022-12-02T09:06:54.106Z,46.00
2022-12-02T09:09:20.680Z,46.00
2022-12-02T09:11:47.244Z,45.90
2022-12-02T09:14:13.787Z,46.40
2022-12-02T09:16:40.307Z,45.90
2022-12-02T09:19:06.836Z,45.90
2022-12-02T09:21:33.588Z,47.00
2022-12-02T09:24:00.160Z,45.80
2022-12-02T09:26:26.810Z,48.30
2022-12-02T09:28:53.340Z,46.60
2022-12-02T09:31:20.046Z,45.30
2022-12-02T09:33:46.659Z,44.50
2022-12-02T09:36:13.197Z,45.90
2022-12-02T09:38:39.866Z,45.80
2022-12-02T09:41:06.625Z,45.80
2022-12-02T09:43:33.275Z,45.90
2022-12-02T09:46:00.187Z,45.80
2022-12-02T09:48:27.581Z,45.80
2022-12-02T09:50:55.221Z,45.70
2022-12-02T09:53:21.759Z,45.80
2022-12-02T09:55:48.287Z,45.90
2022-12-02T09:58:19.509Z,45.90
2022-12-02T10:00:46.369Z,45.90
2022-12-02T10:03:19.064Z,45.90
2022-12-02T10:05:46.024Z,48.10
2022-12-02T10:08:16.352Z,50.00
2022-12-02T10:10:43.328Z,50.10
2022-12-02T10:13:17.020Z,51.60
2022-12-02T10:15:43.933Z,53.50
2022-12-02T10:18:22.007Z,52.50
2022-12-02T10:20:50.258Z,52.90
2022-12-02T10:23:26.683Z,53.70
2022-12-02T10:26:10.567Z,52.90
2022-12-02T10:28:37.715Z,54.50
2022-12-02T10:31:12.695Z,56.50
2022-12-02T10:33:50.837Z,54.90
2022-12-02T10:36:30.941Z,53.80
2022-12-02T10:39:15.618Z,53.10
2022-12-02T10:41:42.312Z,51.30
2022-12-02T10:44:13.345Z,52.30
2022-12-02T10:46:39.952Z,53.20
2022-12-02T10:49:16.958Z,53.60
2022-12-02T10:51:43.595Z,53.20
2022-12-02T10:54:20.446Z,53.20
2022-12-02T10:56:47.033Z,52.70
2022-12-02T10:59:14.328Z,52.10
2022-12-02T11:01:41.473Z,50.30
2022-12-02T11:04:12.412Z,50.40
2022-12-02T11:06:39.111Z,50.50
2022-12-02T11:09:38.009Z,52.80
2022-12-02T11:11:52.898Z,53.10
2022-12-02T11:14:55.215Z,51.90
2022-12-02T11:17:41.730Z,52.10
2022-12-02T11:20:20.533Z,49.60
2022-12-02T11:22:48.495Z,50.40
2022-12-02T11:25:33.726Z,51.80
2022-12-02T11:28:18.790Z,52.90
2022-12-02T11:30:46.935Z,54.10
2022-12-02T11:33:14.290Z,52.20
2022-12-02T11:35:59.937Z,51.70
2022-12-02T11:38:27.574Z,53.00
2022-12-02T11:40:54.138Z,52.60
2022-12-02T11:43:39.635Z,53.30
2022-12-02T11:46:06.257Z,53.80
2022-12-02T11:48:32.871Z,52.60
2022-12-02T11:50:59.419Z,56.10
2022-12-02T11:53:26.031Z,56.70
2022-12-02T11:55:53.731Z,54.90
2022-12-02T11:58:23.339Z,54.20
2022-12-02T12:01:19.454Z,56.60
2022-12-02T12:03:47.734Z,56.50
2022-12-02T12:06:15.897Z,56.60
2022-12-02T12:08:48.431Z,56.50
2022-12-02T12:11:24.777Z,57.10
2022-12-02T12:14:02.434Z,59.00
2022-12-02T12:16:32.616Z,61.30
2022-12-02T12:19:04.344Z,62.90
2022-12-02T12:21:31.285Z,63.60
2022-12-02T12:24:16.947Z,62.50
2022-12-02T12:26:44.743Z,63.90
2022-12-02T12:29:11.477Z,65.60
2022-12-02T12:31:39.094Z,65.00
2022-12-02T12:34:06.284Z,65.60
2022-12-02T12:36:32.966Z,65.50
2022-12-02T12:38:59.573Z,65.10
2022-12-02T12:41:58.020Z,65.50
2022-12-02T12:44:12.869Z,65.60
2022-12-02T12:46:39.534Z,65.50
2022-12-02T12:49:06.315Z,65.50
2022-12-02T12:51:32.851Z,65.60
2022-12-02T12:53:59.446Z,65.50
2022-12-02T12:56:26.032Z,66.60
2022-12-02T12:58:52.604Z,68.30
2022-12-02T13:01:24.494Z,65.80
2022-12-02T13:03:51.659Z,67.80
2022-12-02T13:06:18.236Z,69.60
2022-12-02T13:08:44.749Z,67.90
2022-12-02T13:11:11.301Z,69.10
2022-12-02T13:13:37.874Z,69.10
2022-12-02T13:16:04.473Z,69.30
2022-12-02T13:18:31.003Z,67.90
2022-12-02T13:20:57.636Z,67.10
2022-12-02T13:23:24.203Z,67.60
2022-12-02T13:25:50.714Z,69.50
2022-12-02T13:28:17.264Z,72.30
2022-12-02T13:30:43.847Z,73.70
2022-12-02T13:33:10.459Z,75.10
2022-12-02T13:35:37.042Z,73.70
2022-12-02T13:38:03.615Z,73.70
2022-12-02T13:40:30.146Z,73.70
2022-12-02T13:42:57.592Z,73.70
2022-12-02T13:45:24.517Z,73.70
2022-12-02T13:47:51.119Z,72.80
2022-12-02T13:50:17.778Z,72.10
2022-12-02T13:52:44.328Z,73.30
2022-12-02T13:55:10.867Z,73.50
2022-12-02T13:57:37.418Z,73.50
2022-12-02T14:00:04.680Z,74.10
2022-12-02T14:02:31.193Z,73.80
2022-12-02T14:05:01.153Z,74.90
2022-12-02T14:07:30.825Z,75.70
2022-12-02T14:09:57.424Z,75.80
2022-12-02T14:12:24.287Z,75.10
2022-12-02T14:14:51.189Z,77.50
2022-12-02T14:17:17.882Z,76.30
2022-12-02T14:19:44.450Z,76.30
2022-12-02T14:22:11.033Z,77.50
2022-12-02T14:24:37.611Z,77.10
2022-12-02T14:27:04.150Z,77.50
2022-12-02T14:29:30.760Z,77.40
2022-12-02T14:31:57.405Z,77.40
2022-12-02T14:34:24.029Z,77.40
2022-12-02T14:36:50.573Z,77.70
2022-12-02T14:39:17.205Z,77.50
2022-12-02T14:41:43.779Z,75.60
2022-12-02T14:44:10.410Z,76.90
2022-12-02T14:46:37.177Z,76.30
2022-12-02T14:49:37.207Z,77.00
2022-12-02T14:51:50.425Z,77.40
2022-12-02T14:54:17.000Z,78.10
2022-12-02T14:56:43.548Z,77.60
2022-12-02T14:59:14.633Z,78.60
2022-12-02T15:01:41.979Z,77.90
2022-12-02T15:04:08.899Z,79.00
2022-12-02T15:06:36.306Z,78.40
2022-12-02T15:09:03.763Z,79.40
2022-12-02T15:11:30.327Z,79.10
2022-12-02T15:13:56.863Z,78.50
2022-12-02T15:16:23.531Z,78.20
2022-12-02T15:18:50.175Z,79.00
2022-12-02T15:21:16.741Z,79.50
2022-12-02T15:23:43.271Z,79.40
2022-12-02T15:26:10.004Z,79.00
2022-12-02T15:28:36.526Z,79.00
2022-12-02T15:31:03.486Z,79.60
2022-12-02T15:33:30.107Z,81.10
2022-12-02T15:35:56.664Z,81.10
2022-12-02T15:38:24.677Z,81.30
2022-12-02T15:40:51.460Z,83.10
2022-12-02T15:43:18.007Z,82.40
2022-12-02T15:45:45.076Z,82.60
2022-12-02T15:48:11.843Z,83.30
2022-12-02T15:50:38.413Z,84.70
2022-12-02T15:53:04.928Z,83.30
2022-12-02T15:55:31.601Z,82.80
2022-12-02T15:57:58.206Z,82.40
2022-12-02T16:00:24.819Z,83.00
2022-12-02T16:02:55.952Z,83.80
2022-12-02T16:05:23.266Z,84.80
2022-12-02T16:07:49.908Z,84.90
2022-12-02T16:10:16.611Z,84.90
2022-12-02T16:12:43.168Z,84.90
2022-12-02T16:15:10.173Z,84.30
2022-12-02T16:17:36.996Z,84.50
2022-12-02T16:20:07.115Z,84.30
2022-12-02T16:22:35.273Z,83.30
2022-12-02T16:25:01.901Z,83.80
2022-12-02T16:27:28.423Z,84.40
2022-12-02T16:29:55.103Z,84.80
2022-12-02T16:32:21.756Z,84.60
2022-12-02T16:34:48.496Z,84.80
2022-12-02T16:37:17.338Z,84.80
2022-12-02T16:39:44.022Z,84.00
2022-12-02T16:42:10.723Z,84.80
2022-12-02T16:44:37.269Z,84.80
2022-12-02T16:47:04.305Z,85.80
2022-12-02T16:49:30.908Z,86.90
2022-12-02T16:51:58.599Z,87.40
2022-12-02T16:54:25.404Z,88.00
2022-12-02T16:56:55.803Z,88.60
2022-12-02T16:59:23.293Z,88.60
2022-12-02T17:01:49.940Z,88.60
2022-12-02T17:04:16.586Z,88.60
2022-12-02T17:06:43.130Z,88.60
2022-12-02T17:09:09.681Z,88.60
2022-12-02T17:11:36.213Z,88.60
2022-12-02T17:14:02.793Z,88.70
2022-12-02T17:16:29.397Z,89.60
2022-12-02T17:18:56.052Z,88.70
2022-12-02T17:21:22.768Z,88.70
2022-12-02T17:23:49.356Z,88.70
2022-12-02T17:26:15.905Z,88.70
2022-12-02T17:28:42.451Z,88.70
2022-12-02T17:31:10.593Z,88.70
2022-12-02T17:33:37.215Z,88.70
2022-12-02T17:36:04.209Z,88.70
2022-12-02T17:38:30.780Z,88.70
2022-12-02T17:41:12.341Z,88.70
2022-12-02T17:43:39.470Z,87.70
2022-12-02T17:46:06.587Z,87.00
2022-12-02T17:48:33.518Z,87.30
2022-12-02T17:51:00.088Z,86.00
2022-12-02T17:53:27.054Z,86.80
2022-12-02T17:55:53.567Z,87.70
2022-12-02T17:58:20.117Z,87.70
2022-12-02T18:00:46.673Z,87.80
2022-12-02T18:03:13.254Z,87.10
2022-12-02T18:05:39.887Z,85.90
2022-12-02T18:08:06.500Z,86.70
2022-12-02T18:10:33.256Z,87.70
2022-12-02T18:12:59.786Z,87.60
2022-12-02T18:15:26.429Z,88.50
2022-12-02T18:17:53.005Z,88.50
2022-12-02T18:20:19.542Z,88.50
2022-12-02T18:22:46.121Z,88.50
2022-12-02T18:25:12.834Z,88.50
2022-12-02T18:27:39.637Z,89.30
2022-12-02T18:30:08.966Z,88.50
2022-12-02T18:32:38.857Z,88.60
2022-12-02T18:35:05.856Z,89.70
2022-12-02T18:37:32.481Z,90.20
2022-12-02T18:39:59.033Z,90.20
2022-12-02T18:42:25.615Z,90.00
2022-12-02T18:44:52.277Z,89.30
2022-12-02T18:47:19.057Z,89.60
2022-12-02T18:49:45.679Z,88.60
2022-12-02T18:52:12.299Z,88.50
2022-12-02T18:54:39.182Z,88.60
2022-12-02T18:57:05.731Z,88.50
2022-12-02T18:59:32.881Z,89.20
2022-12-02T19:01:59.536Z,89.40
2022-12-02T19:04:26.147Z,89.70
2022-12-02T19:06:52.680Z,89.50
2022-12-02T19:09:19.198Z,89.80
2022-12-02T19:11:45.734Z,90.30
2022-12-02T19:14:12.242Z,90.20
2022-12-02T19:16:39.583Z,90.50
2022-12-02T19:19:06.206Z,90.70
2022-12-02T19:21:32.730Z,90.50
2022-12-02T19:23:59.339Z,99.90
2022-12-02T19:26:25.899Z,94.60
2022-12-02T19:28:52.429Z,33.80
2022-12-02T19:31:19.106Z,14.30
2022-12-02T19:33:45.721Z,7.20
2022-12-02T19:36:14.012Z,7.10
2022-12-02T19:38:40.526Z,3.50
2022-12-02T19:41:07.048Z,2.20
2022-12-02T19:43:36.103Z,1.30
2022-12-02T19:46:03.489Z,1.00
2022-12-02T19:48:30.081Z,1.00
2022-12-02T19:50:56.635Z,1.00
2022-12-02T19:53:23.203Z,1.00
2022-12-02T19:55:49.800Z,1.00
2022-12-02T19:58:16.365Z,1.00
2022-12-02T20:00:42.915Z,1.00
2022-12-02T20:03:09.600Z,1.00
2022-12-02T20:05:36.298Z,1.00
2022-12-02T20:08:02.917Z,1.00
2022-12-02T20:10:29.502Z,5.10
2022-12-02T20:12:56.006Z,15.70
2022-12-02T20:15:22.573Z,23.30
2022-12-02T20:17:49.104Z,30.10
2022-12-02T20:20:15.812Z,38.20
2022-12-02T20:22:42.745Z,46.30
2022-12-02T20:25:10.317Z,51.80
2022-12-02T20:27:37.027Z,57.50
2022-12-02T20:30:04.830Z,60.60
2022-12-02T20:32:31.706Z,60.20
2022-12-02T20:34:58.223Z,63.70
2022-12-02T20:37:24.815Z,64.80
2022-12-02T20:39:51.404Z,65.90
2022-12-02T20:42:17.954Z,68.70
2022-12-02T20:44:49.354Z,68.70
2022-12-02T20:47:18.801Z,70.50
2022-12-02T20:49:45.424Z,73.00
2022-12-02T20:52:12.005Z,74.40
2022-12-02T20:54:38.656Z,74.80
2022-12-02T20:57:06.874Z,75.20
2022-12-02T20:59:33.634Z,75.60
2022-12-02T21:02:00.274Z,75.70
2022-12-02T21:04:26.963Z,76.40
2022-12-02T21:06:53.607Z,76.80
2022-12-02T21:09:20.335Z,77.70
2022-12-02T21:11:46.882Z,78.00
2022-12-02T21:14:14.102Z,79.60
2022-12-02T21:16:40.840Z,81.00
2022-12-02T21:19:07.704Z,80.90
2022-12-02T21:21:34.668Z,80.90
2022-12-02T21:24:04.049Z,80.90
2022-12-02T21:26:31.282Z,80.90
2022-12-02T21:28:57.938Z,80.90
2022-12-02T21:31:24.646Z,82.00
2022-12-02T21:33:51.312Z,83.00
2022-12-02T21:36:17.915Z,83.40
2022-12-02T21:38:44.434Z,81.50
2022-12-02T21:41:10.967Z,81.00
2022-12-02T21:43:37.528Z,80.90
2022-12-02T21:46:04.399Z,80.90
2022-12-02T21:48:31.016Z,81.40
2022-12-02T21:50:57.596Z,80.90
2022-12-02T21:53:24.199Z,80.90
2022-12-02T21:55:50.734Z,80.90
2022-12-02T21:58:17.257Z,80.90
2022-12-02T22:00:43.851Z,80.90
2022-12-02T22:03:14.779Z,80.80
2022-12-02T22:05:41.734Z,80.90
2022-12-02T22:08:08.364Z,80.90
2022-12-02T22:10:34.949Z,80.60
2022-12-02T22:13:01.503Z,80.80
2022-12-02T22:15:28.074Z,80.90
2022-12-02T22:17:54.678Z,80.90
2022-12-02T22:20:21.430Z,80.90
2022-12-02T22:22:48.065Z,80.90
2022-12-02T22:25:14.646Z,81.10
2022-12-02T22:27:41.160Z,80.90
2022-12-02T22:30:08.252Z,82.00
2022-12-02T22:32:35.322Z,82.80
2022-12-02T22:35:02.396Z,82.60
2022-12-02T22:37:28.983Z,82.80
2022-12-02T22:39:55.546Z,83.10
2022-12-02T22:42:22.085Z,83.10
2022-12-02T22:44:48.730Z,83.70
2022-12-02T22:47:15.251Z,83.50
2022-12-02T22:49:41.773Z,83.20
2022-12-02T22:52:08.472Z,83.40
2022-12-02T22:54:35.036Z,84.40
2022-12-02T22:57:01.624Z,84.70
2022-12-02T22:59:28.219Z,84.80
2022-12-02T23:01:54.904Z,84.80
2022-12-02T23:04:21.617Z,84.80
2022-12-02T23:06:48.289Z,84.70
2022-12-02T23:09:14.985Z,84.90
2022-12-02T23:11:41.591Z,84.50
2022-12-02T23:14:08.169Z,84.60
2022-12-02T23:16:34.875Z,84.80
2022-12-02T23:19:01.467Z,84.50
2022-12-02T23:21:28.065Z,83.90
2022-12-02T23:23:54.686Z,83.70
2022-12-02T23:26:21.326Z,82.40
2022-12-02T23:28:47.888Z,82.50
2022-12-02T23:31:14.567Z,82.20
2022-12-02T23:33:41.320Z,83.10
2022-12-02T23:36:08.047Z,82.40
2022-12-02T23:38:34.557Z,82.90
2022-12-02T23:41:01.098Z,82.50
2022-12-02T23:43:27.677Z,82.20
2022-12-02T23:45:54.481Z,83.60
2022-12-02T23:48:21.078Z,84.20
2022-12-02T23:50:47.663Z,84.30
2022-12-02T23:53:14.190Z,84.20
2022-12-02T23:55:40.779Z,84.20
2022-12-02T23:58:07.442Z,84.90
